»·PEaware :: N989MA KCMA-KDLO

N989MA :: KCMA-KDLO

FLIGHT INFORMATION

Flight Status: Arrived
Operator: Privately registered:
United States
More flights under this callsign
Pilot: Terry F. (30390)
Aircraft: MOONEY M-20 201 202 205 220 ATS MSE
(M20P)
More flights by this aircraft type
Origin: KCMA Camarillo
United States
Destination: KDLO Delano Mun
United States
More flights between these airports :: More routes between these airports
Route: DIRECT
File this flight plan on PilotEdge
Remarks:
Altitude:
(Current/Filed)
7,500ft
Speed:
(Current/Filed)
150kts
Departed: 23-Nov-20 02:44 PM
Arrived: 23-Nov-20 03:29 PM
Distance/Time
Traveled:
92nm/0:45
Distance/Time
To Go:
Arrived

Flight Plot

Page will automatically refresh every two minutes.


Map Options




Map Legend


Flown Route
Filed Route
Departure Airport
Arrival Airport
Navaid (VOR, NDB)
Fix

Horizontal Profiles

Position Reports

Time Latitude Longitude Heading Altitude Ground
Speed
23-Nov-20 14:29 34.210350 -119.076471 90 77ft 0kts
23-Nov-20 14:30 34.210350 -119.076471 90 77ft 0kts
23-Nov-20 14:31 34.210350 -119.076471 90 77ft 0kts
23-Nov-20 14:32 34.210350 -119.076471 90 77ft 0kts
23-Nov-20 14:33 34.210350 -119.076471 90 77ft 0kts
23-Nov-20 14:34 34.210350 -119.076471 90 77ft 0kts
23-Nov-20 14:35 34.210350 -119.076471 90 77ft 0kts
23-Nov-20 14:36 34.210660 -119.076501 332 77ft 3kts
23-Nov-20 14:37 34.210750 -119.077626 282 77ft 0kts
23-Nov-20 14:38 34.210883 -119.078957 271 76ft 11kts
23-Nov-20 14:39 34.210910 -119.082362 269 74ft 9kts
23-Nov-20 14:40 34.210920 -119.084348 275 72ft 3kts
23-Nov-20 14:41 34.212913 -119.084619 358 74ft 0kts
23-Nov-20 14:42 34.213538 -119.084658 333 74ft 7kts
23-Nov-20 14:43 34.213778 -119.104384 266 784ft 81kts
23-Nov-20 14:44 34.216125 -119.135407 271 1993ft 97kts
23-Nov-20 14:45 34.219412 -119.167978 282 3102ft 100kts
23-Nov-20 14:46 34.243226 -119.182438 356 4109ft 114kts
23-Nov-20 14:47 34.274589 -119.172248 12 5076ft 118kts
23-Nov-20 14:48 34.305483 -119.158321 10 5963ft 118kts
23-Nov-20 14:49 34.336319 -119.144677 356 6786ft 114kts
23-Nov-20 14:50 34.368075 -119.142626 352 7462ft 121kts
23-Nov-20 14:51 34.406185 -119.145208 348 7518ft 151kts
23-Nov-20 14:52 34.449543 -119.147058 359 7531ft 160kts
23-Nov-20 14:53 34.491355 -119.151008 345 7868ft 146kts
23-Nov-20 14:54 34.530961 -119.158495 344 8209ft 143kts
23-Nov-20 14:55 34.569771 -119.168119 345 8515ft 143kts
23-Nov-20 14:56 34.607920 -119.179866 339 8797ft 141kts
23-Nov-20 14:57 34.646277 -119.191252 343 9048ft 141kts
23-Nov-20 14:58 34.684972 -119.201113 340 9257ft 142kts
23-Nov-20 15:00 34.723258 -119.213577 342 9467ft 145kts
23-Nov-20 15:01 34.764142 -119.223817 345 9531ft 153kts
23-Nov-20 15:02 34.807525 -119.224587 1 9540ft 158kts
23-Nov-20 15:03 34.851040 -119.220314 356 9582ft 155kts
23-Nov-20 15:04 34.896577 -119.218818 2 8784ft 168kts
23-Nov-20 15:05 34.943995 -119.217459 356 7302ft 174kts
23-Nov-20 15:06 34.993127 -119.211094 12 5337ft 186kts
23-Nov-20 15:07 35.045022 -119.212477 352 3367ft 177kts
23-Nov-20 15:08 35.088493 -119.222894 345 3429ft 154kts
23-Nov-20 15:09 35.130488 -119.231440 358 3566ft 154kts
23-Nov-20 15:10 35.173704 -119.231987 359 3601ft 156kts
23-Nov-20 15:11 35.217264 -119.231280 2 3594ft 158kts
23-Nov-20 15:12 35.261284 -119.229075 353 3527ft 159kts
23-Nov-20 15:13 35.305006 -119.235911 359 3454ft 161kts
23-Nov-20 15:14 35.348597 -119.236417 354 3538ft 155kts
23-Nov-20 15:15 35.391554 -119.239095 4 3579ft 156kts
23-Nov-20 15:16 35.434532 -119.232719 11 3590ft 157kts
23-Nov-20 15:16 35.470089 -119.222674 10 3558ft 159kts
23-Nov-20 15:18 35.520502 -119.230004 345 3527ft 158kts
23-Nov-20 15:18 35.556221 -119.239220 349 3528ft 157kts
23-Nov-20 15:19 35.597221 -119.258078 330 3450ft 159kts
23-Nov-20 15:20 35.634540 -119.286342 326 3374ft 157kts
23-Nov-20 15:21 35.669914 -119.317472 329 3051ft 157kts
23-Nov-20 15:22 35.708880 -119.332133 11 2558ft 132kts
23-Nov-20 15:23 35.740430 -119.312474 42 1783ft 130kts
23-Nov-20 15:24 35.751892 -119.277602 89 1287ft 107kts
23-Nov-20 15:25 35.733196 -119.253230 157 1284ft 106kts
23-Nov-20 15:26 35.717073 -119.230422 44 1120ft 94kts
23-Nov-20 15:27 35.737340 -119.232586 339 349ft 71kts
23-Nov-20 15:28 35.745379 -119.237860 288 312ft 8kts
23-Nov-20 15:29 35.745938 -119.238742 336 311ft 0kts
23-Nov-20 15:30 35.745938 -119.238742 336 311ft 0kts
23-Nov-20 15:31 35.745938 -119.238742 336 311ft 0kts

Navigation Log

Ident Type
Flight plan parsing failed, navigation log unavailable